sensor_id;sensor_type;location;lat;lon;timestamp;P1;durP1;ratioP1;P2;durP2;ratioP2
81386;SDS011;70842;50.744;7.114;2023-07-02T00:02:14;5.88;;;4.57;;
81386;SDS011;70842;50.744;7.114;2023-07-02T00:04:42;6.95;;;6.35;;
81386;SDS011;70842;50.744;7.114;2023-07-02T00:07:09;5.60;;;4.70;;
81386;SDS011;70842;50.744;7.114;2023-07-02T00:09:36;5.85;;;4.55;;
81386;SDS011;70842;50.744;7.114;2023-07-02T00:12:02;5.38;;;4.53;;
81386;SDS011;70842;50.744;7.114;2023-07-02T00:14:29;5.05;;;4.55;;
81386;SDS011;70842;50.744;7.114;2023-07-02T00:16:56;6.15;;;4.88;;
81386;SDS011;70842;50.744;7.114;2023-07-02T00:19:22;5.07;;;4.40;;
81386;SDS011;70842;50.744;7.114;2023-07-02T00:21:48;5.80;;;3.63;;
81386;SDS011;70842;50.744;7.114;2023-07-02T00:24:15;6.32;;;5.07;;
81386;SDS011;70842;50.744;7.114;2023-07-02T00:26:42;6.50;;;5.82;;
81386;SDS011;70842;50.744;7.114;2023-07-02T00:29:08;7.40;;;6.78;;
81386;SDS011;70842;50.744;7.114;2023-07-02T00:31:35;7.57;;;6.97;;
81386;SDS011;70842;50.744;7.114;2023-07-02T00:34:02;6.00;;;5.40;;
81386;SDS011;70842;50.744;7.114;2023-07-02T00:36:30;6.47;;;4.78;;
81386;SDS011;70842;50.744;7.114;2023-07-02T00:38:57;5.85;;;4.63;;
81386;SDS011;70842;50.744;7.114;2023-07-02T00:41:24;5.78;;;4.90;;
81386;SDS011;70842;50.744;7.114;2023-07-02T00:43:51;5.47;;;4.40;;
81386;SDS011;70842;50.744;7.114;2023-07-02T00:46:20;6.25;;;5.05;;
81386;SDS011;70842;50.744;7.114;2023-07-02T00:48:49;5.88;;;5.38;;
81386;SDS011;70842;50.744;7.114;2023-07-02T00:51:20;6.20;;;5.63;;
81386;SDS011;70842;50.744;7.114;2023-07-02T00:53:51;6.55;;;5.38;;
81386;SDS011;70842;50.744;7.114;2023-07-02T00:56:22;8.70;;;7.90;;
81386;SDS011;70842;50.744;7.114;2023-07-02T00:58:50;6.45;;;5.85;;
81386;SDS011;70842;50.744;7.114;2023-07-02T01:01:19;5.88;;;5.35;;
81386;SDS011;70842;50.744;7.114;2023-07-02T01:03:53;5.60;;;4.20;;
81386;SDS011;70842;50.744;7.114;2023-07-02T01:06:23;4.90;;;4.15;;
81386;SDS011;70842;50.744;7.114;2023-07-02T01:08:55;5.45;;;4.40;;
81386;SDS011;70842;50.744;7.114;2023-07-02T01:11:27;5.57;;;5.07;;
81386;SDS011;70842;50.744;7.114;2023-07-02T01:13:56;4.90;;;4.40;;
81386;SDS011;70842;50.744;7.114;2023-07-02T01:16:29;6.55;;;6.00;;
81386;SDS011;70842;50.744;7.114;2023-07-02T01:19:00;5.03;;;4.53;;
81386;SDS011;70842;50.744;7.114;2023-07-02T01:21:30;8.43;;;6.53;;
81386;SDS011;70842;50.744;7.114;2023-07-02T01:23:59;8.98;;;7.53;;
81386;SDS011;70842;50.744;7.114;2023-07-02T01:26:30;5.57;;;4.82;;
81386;SDS011;70842;50.744;7.114;2023-07-02T01:29:13;7.28;;;5.40;;
81386;SDS011;70842;50.744;7.114;2023-07-02T01:31:44;7.47;;;6.03;;
81386;SDS011;70842;50.744;7.114;2023-07-02T01:34:11;8.27;;;5.00;;
81386;SDS011;70842;50.744;7.114;2023-07-02T01:36:38;6.57;;;5.78;;
81386;SDS011;70842;50.744;7.114;2023-07-02T01:39:06;7.50;;;6.68;;
81386;SDS011;70842;50.744;7.114;2023-07-02T01:41:48;7.90;;;7.13;;
81386;SDS011;70842;50.744;7.114;2023-07-02T01:44:16;9.10;;;4.80;;
81386;SDS011;70842;50.744;7.114;2023-07-02T01:46:43;9.15;;;5.20;;
81386;SDS011;70842;50.744;7.114;2023-07-02T01:49:10;8.68;;;5.50;;
81386;SDS011;70842;50.744;7.114;2023-07-02T01:51:37;9.77;;;6.45;;
81386;SDS011;70842;50.744;7.114;2023-07-02T01:54:04;9.00;;;5.40;;
81386;SDS011;70842;50.744;7.114;2023-07-02T01:56:31;8.75;;;5.18;;
81386;SDS011;70842;50.744;7.114;2023-07-02T01:58:58;8.82;;;6.20;;
81386;SDS011;70842;50.744;7.114;2023-07-02T02:01:24;12.05;;;7.07;;
81386;SDS011;70842;50.744;7.114;2023-07-02T02:03:51;11.05;;;6.60;;
81386;SDS011;70842;50.744;7.114;2023-07-02T02:06:17;9.77;;;6.13;;
81386;SDS011;70842;50.744;7.114;2023-07-02T02:08:43;9.93;;;6.97;;
81386;SDS011;70842;50.744;7.114;2023-07-02T02:11:10;11.07;;;6.75;;
81386;SDS011;70842;50.744;7.114;2023-07-02T02:13:36;11.10;;;7.07;;
81386;SDS011;70842;50.744;7.114;2023-07-02T02:16:03;10.85;;;7.32;;
81386;SDS011;70842;50.744;7.114;2023-07-02T02:18:29;9.15;;;7.72;;
81386;SDS011;70842;50.744;7.114;2023-07-02T02:20:56;11.65;;;6.68;;
81386;SDS011;70842;50.744;7.114;2023-07-02T02:23:22;10.77;;;6.57;;
81386;SDS011;70842;50.744;7.114;2023-07-02T02:25:49;11.98;;;8.68;;
81386;SDS011;70842;50.744;7.114;2023-07-02T02:28:15;11.35;;;8.73;;
81386;SDS011;70842;50.744;7.114;2023-07-02T02:30:42;10.82;;;7.45;;
81386;SDS011;70842;50.744;7.114;2023-07-02T02:33:08;11.27;;;9.45;;
81386;SDS011;70842;50.744;7.114;2023-07-02T02:35:34;11.52;;;6.43;;
81386;SDS011;70842;50.744;7.114;2023-07-02T02:38:02;14.15;;;8.68;;
81386;SDS011;70842;50.744;7.114;2023-07-02T02:40:29;11.05;;;7.28;;
81386;SDS011;70842;50.744;7.114;2023-07-02T02:42:56;14.60;;;8.50;;
81386;SDS011;70842;50.744;7.114;2023-07-02T02:45:22;14.98;;;8.68;;
81386;SDS011;70842;50.744;7.114;2023-07-02T02:47:48;14.55;;;10.00;;
81386;SDS011;70842;50.744;7.114;2023-07-02T02:50:15;14.43;;;6.63;;
81386;SDS011;70842;50.744;7.114;2023-07-02T02:52:41;10.75;;;7.88;;
81386;SDS011;70842;50.744;7.114;2023-07-02T02:55:09;13.63;;;7.95;;
81386;SDS011;70842;50.744;7.114;2023-07-02T02:57:36;12.65;;;7.68;;
81386;SDS011;70842;50.744;7.114;2023-07-02T03:00:03;15.73;;;7.88;;
81386;SDS011;70842;50.744;7.114;2023-07-02T03:02:31;13.88;;;7.07;;
81386;SDS011;70842;50.744;7.114;2023-07-02T03:04:57;14.50;;;10.00;;
81386;SDS011;70842;50.744;7.114;2023-07-02T03:07:28;11.88;;;7.03;;
81386;SDS011;70842;50.744;7.114;2023-07-02T03:09:55;13.77;;;8.27;;
81386;SDS011;70842;50.744;7.114;2023-07-02T03:12:21;12.73;;;9.07;;
81386;SDS011;70842;50.744;7.114;2023-07-02T03:14:51;13.02;;;11.13;;
81386;SDS011;70842;50.744;7.114;2023-07-02T03:17:20;12.18;;;8.63;;
81386;SDS011;70842;50.744;7.114;2023-07-02T03:19:47;17.77;;;9.40;;
81386;SDS011;70842;50.744;7.114;2023-07-02T03:22:13;11.85;;;7.38;;
81386;SDS011;70842;50.744;7.114;2023-07-02T03:24:40;13.10;;;8.50;;
81386;SDS011;70842;50.744;7.114;2023-07-02T03:27:06;15.52;;;7.43;;
81386;SDS011;70842;50.744;7.114;2023-07-02T03:29:33;14.68;;;8.52;;
81386;SDS011;70842;50.744;7.114;2023-07-02T03:32:01;14.25;;;9.98;;
81386;SDS011;70842;50.744;7.114;2023-07-02T03:34:27;12.77;;;8.35;;
81386;SDS011;70842;50.744;7.114;2023-07-02T03:36:54;16.02;;;8.73;;
81386;SDS011;70842;50.744;7.114;2023-07-02T03:39:20;13.65;;;9.20;;
81386;SDS011;70842;50.744;7.114;2023-07-02T03:41:47;17.05;;;10.45;;
81386;SDS011;70842;50.744;7.114;2023-07-02T03:44:14;14.43;;;9.90;;
81386;SDS011;70842;50.744;7.114;2023-07-02T03:46:40;15.43;;;9.65;;
81386;SDS011;70842;50.744;7.114;2023-07-02T03:49:07;17.02;;;9.32;;
81386;SDS011;70842;50.744;7.114;2023-07-02T03:51:33;15.93;;;9.40;;
81386;SDS011;70842;50.744;7.114;2023-07-02T03:54:00;13.38;;;9.25;;
81386;SDS011;70842;50.744;7.114;2023-07-02T03:56:26;16.58;;;8.80;;
81386;SDS011;70842;50.744;7.114;2023-07-02T03:58:53;14.25;;;8.18;;
81386;SDS011;70842;50.744;7.114;2023-07-02T04:01:19;16.20;;;9.50;;
81386;SDS011;70842;50.744;7.114;2023-07-02T04:03:49;15.52;;;7.85;;
81386;SDS011;70842;50.744;7.114;2023-07-02T04:06:16;16.27;;;9.13;;
81386;SDS011;70842;50.744;7.114;2023-07-02T04:08:43;15.70;;;8.73;;
81386;SDS011;70842;50.744;7.114;2023-07-02T04:11:11;16.13;;;9.45;;
81386;SDS011;70842;50.744;7.114;2023-07-02T04:13:38;13.95;;;8.35;;
81386;SDS011;70842;50.744;7.114;2023-07-02T04:16:05;15.98;;;9.73;;
81386;SDS011;70842;50.744;7.114;2023-07-02T04:18:32;16.23;;;10.25;;
81386;SDS011;70842;50.744;7.114;2023-07-02T04:20:59;16.02;;;9.25;;
81386;SDS011;70842;50.744;7.114;2023-07-02T04:23:26;18.05;;;9.18;;
81386;SDS011;70842;50.744;7.114;2023-07-02T04:25:53;16.67;;;9.23;;
81386;SDS011;70842;50.744;7.114;2023-07-02T04:28:39;16.90;;;9.50;;
81386;SDS011;70842;50.744;7.114;2023-07-02T04:31:06;16.75;;;9.27;;
81386;SDS011;70842;50.744;7.114;2023-07-02T04:33:32;19.88;;;11.25;;
81386;SDS011;70842;50.744;7.114;2023-07-02T04:36:02;18.77;;;10.68;;
81386;SDS011;70842;50.744;7.114;2023-07-02T04:38:29;22.45;;;11.38;;
81386;SDS011;70842;50.744;7.114;2023-07-02T04:40:56;18.92;;;10.38;;
81386;SDS011;70842;50.744;7.114;2023-07-02T04:43:31;19.65;;;13.02;;
81386;SDS011;70842;50.744;7.114;2023-07-02T04:45:59;19.73;;;9.95;;
81386;SDS011;70842;50.744;7.114;2023-07-02T04:48:25;18.95;;;12.48;;
81386;SDS011;70842;50.744;7.114;2023-07-02T04:50:52;20.67;;;11.85;;
81386;SDS011;70842;50.744;7.114;2023-07-02T04:53:18;21.83;;;14.13;;
81386;SDS011;70842;50.744;7.114;2023-07-02T04:55:45;21.02;;;11.27;;
81386;SDS011;70842;50.744;7.114;2023-07-02T04:58:11;18.98;;;11.75;;
81386;SDS011;70842;50.744;7.114;2023-07-02T05:00:37;25.98;;;12.65;;
81386;SDS011;70842;50.744;7.114;2023-07-02T05:03:04;22.95;;;14.07;;
81386;SDS011;70842;50.744;7.114;2023-07-02T05:05:30;23.85;;;12.43;;
81386;SDS011;70842;50.744;7.114;2023-07-02T05:07:57;21.95;;;12.27;;
81386;SDS011;70842;50.744;7.114;2023-07-02T05:10:23;22.88;;;13.07;;
81386;SDS011;70842;50.744;7.114;2023-07-02T05:12:50;18.80;;;11.93;;
81386;SDS011;70842;50.744;7.114;2023-07-02T05:15:16;23.77;;;12.25;;
81386;SDS011;70842;50.744;7.114;2023-07-02T05:17:42;20.35;;;11.35;;
81386;SDS011;70842;50.744;7.114;2023-07-02T05:20:09;21.17;;;12.90;;
81386;SDS011;70842;50.744;7.114;2023-07-02T05:22:36;21.40;;;14.02;;
81386;SDS011;70842;50.744;7.114;2023-07-02T05:25:02;24.60;;;13.57;;
81386;SDS011;70842;50.744;7.114;2023-07-02T05:27:29;23.60;;;13.07;;
81386;SDS011;70842;50.744;7.114;2023-07-02T05:29:55;23.63;;;13.77;;
81386;SDS011;70842;50.744;7.114;2023-07-02T05:32:22;22.77;;;12.73;;
81386;SDS011;70842;50.744;7.114;2023-07-02T05:34:48;25.58;;;12.68;;
81386;SDS011;70842;50.744;7.114;2023-07-02T05:37:15;26.00;;;14.07;;
81386;SDS011;70842;50.744;7.114;2023-07-02T05:39:41;21.48;;;12.52;;
81386;SDS011;70842;50.744;7.114;2023-07-02T05:42:08;25.23;;;15.13;;
81386;SDS011;70842;50.744;7.114;2023-07-02T05:44:34;30.00;;;13.93;;
81386;SDS011;70842;50.744;7.114;2023-07-02T05:47:01;28.02;;;16.98;;
81386;SDS011;70842;50.744;7.114;2023-07-02T05:49:27;24.33;;;13.88;;
81386;SDS011;70842;50.744;7.114;2023-07-02T05:51:54;26.20;;;14.35;;
81386;SDS011;70842;50.744;7.114;2023-07-02T05:54:20;23.65;;;13.27;;
81386;SDS011;70842;50.744;7.114;2023-07-02T05:56:47;29.27;;;13.98;;
81386;SDS011;70842;50.744;7.114;2023-07-02T05:59:13;21.75;;;13.82;;
81386;SDS011;70842;50.744;7.114;2023-07-02T06:01:43;25.70;;;14.90;;
81386;SDS011;70842;50.744;7.114;2023-07-02T06:04:11;24.08;;;14.88;;
81386;SDS011;70842;50.744;7.114;2023-07-02T06:06:38;27.23;;;17.13;;
81386;SDS011;70842;50.744;7.114;2023-07-02T06:09:04;29.60;;;16.90;;
81386;SDS011;70842;50.744;7.114;2023-07-02T06:11:30;24.58;;;14.50;;
81386;SDS011;70842;50.744;7.114;2023-07-02T06:13:57;31.52;;;15.57;;
81386;SDS011;70842;50.744;7.114;2023-07-02T06:16:23;24.67;;;15.27;;
81386;SDS011;70842;50.744;7.114;2023-07-02T06:18:51;27.98;;;14.80;;
81386;SDS011;70842;50.744;7.114;2023-07-02T06:21:17;26.02;;;15.05;;
81386;SDS011;70842;50.744;7.114;2023-07-02T06:23:43;32.67;;;15.15;;
81386;SDS011;70842;50.744;7.114;2023-07-02T06:26:10;28.77;;;15.15;;
81386;SDS011;70842;50.744;7.114;2023-07-02T06:28:37;28.55;;;14.77;;
81386;SDS011;70842;50.744;7.114;2023-07-02T06:31:04;30.73;;;16.77;;
81386;SDS011;70842;50.744;7.114;2023-07-02T06:33:31;26.92;;;14.75;;
81386;SDS011;70842;50.744;7.114;2023-07-02T06:35:57;29.88;;;18.10;;
81386;SDS011;70842;50.744;7.114;2023-07-02T06:38:24;29.55;;;15.43;;
81386;SDS011;70842;50.744;7.114;2023-07-02T06:40:50;29.80;;;15.57;;
81386;SDS011;70842;50.744;7.114;2023-07-02T06:43:17;26.63;;;15.43;;
81386;SDS011;70842;50.744;7.114;2023-07-02T06:45:43;23.95;;;14.70;;
81386;SDS011;70842;50.744;7.114;2023-07-02T06:48:10;24.80;;;14.48;;
81386;SDS011;70842;50.744;7.114;2023-07-02T06:50:36;25.27;;;15.43;;
81386;SDS011;70842;50.744;7.114;2023-07-02T06:53:02;28.65;;;14.43;;
81386;SDS011;70842;50.744;7.114;2023-07-02T06:55:29;27.80;;;15.30;;
81386;SDS011;70842;50.744;7.114;2023-07-02T06:57:56;31.83;;;15.23;;
81386;SDS011;70842;50.744;7.114;2023-07-02T07:00:22;26.90;;;15.93;;
81386;SDS011;70842;50.744;7.114;2023-07-02T07:02:49;27.65;;;14.70;;
81386;SDS011;70842;50.744;7.114;2023-07-02T07:05:15;27.67;;;14.60;;
81386;SDS011;70842;50.744;7.114;2023-07-02T07:07:42;27.23;;;15.23;;
81386;SDS011;70842;50.744;7.114;2023-07-02T07:10:08;33.45;;;17.17;;
81386;SDS011;70842;50.744;7.114;2023-07-02T07:12:35;29.73;;;15.98;;
81386;SDS011;70842;50.744;7.114;2023-07-02T07:15:01;26.30;;;13.18;;
81386;SDS011;70842;50.744;7.114;2023-07-02T07:17:28;27.08;;;15.32;;
81386;SDS011;70842;50.744;7.114;2023-07-02T07:19:55;24.17;;;12.90;;
81386;SDS011;70842;50.744;7.114;2023-07-02T07:22:21;28.15;;;13.57;;
81386;SDS011;70842;50.744;7.114;2023-07-02T07:24:50;22.63;;;12.88;;
81386;SDS011;70842;50.744;7.114;2023-07-02T07:27:17;25.63;;;13.52;;
81386;SDS011;70842;50.744;7.114;2023-07-02T07:29:43;32.17;;;15.88;;
81386;SDS011;70842;50.744;7.114;2023-07-02T07:32:10;29.58;;;14.93;;
81386;SDS011;70842;50.744;7.114;2023-07-02T07:34:36;28.35;;;14.40;;
81386;SDS011;70842;50.744;7.114;2023-07-02T07:37:02;25.27;;;14.40;;
81386;SDS011;70842;50.744;7.114;2023-07-02T07:39:29;23.00;;;14.57;;
81386;SDS011;70842;50.744;7.114;2023-07-02T07:41:56;29.23;;;13.00;;
81386;SDS011;70842;50.744;7.114;2023-07-02T07:44:22;19.45;;;13.65;;
81386;SDS011;70842;50.744;7.114;2023-07-02T07:46:49;26.58;;;13.43;;
81386;SDS011;70842;50.744;7.114;2023-07-02T07:49:15;26.15;;;12.00;;
81386;SDS011;70842;50.744;7.114;2023-07-02T07:51:41;24.35;;;13.43;;
81386;SDS011;70842;50.744;7.114;2023-07-02T07:54:08;21.60;;;12.75;;
81386;SDS011;70842;50.744;7.114;2023-07-02T07:56:35;25.33;;;14.98;;
81386;SDS011;70842;50.744;7.114;2023-07-02T07:59:01;25.13;;;12.77;;
81386;SDS011;70842;50.744;7.114;2023-07-02T08:01:28;24.05;;;12.00;;
81386;SDS011;70842;50.744;7.114;2023-07-02T08:03:55;23.33;;;13.15;;
81386;SDS011;70842;50.744;7.114;2023-07-02T08:06:21;19.05;;;10.15;;
81386;SDS011;70842;50.744;7.114;2023-07-02T08:08:48;19.65;;;11.40;;
81386;SDS011;70842;50.744;7.114;2023-07-02T08:11:14;21.65;;;11.45;;
81386;SDS011;70842;50.744;7.114;2023-07-02T08:13:40;21.92;;;11.25;;
81386;SDS011;70842;50.744;7.114;2023-07-02T08:16:07;19.17;;;10.38;;
81386;SDS011;70842;50.744;7.114;2023-07-02T08:18:35;23.35;;;10.50;;
81386;SDS011;70842;50.744;7.114;2023-07-02T08:21:02;20.15;;;10.75;;
81386;SDS011;70842;50.744;7.114;2023-07-02T08:23:32;20.30;;;11.15;;
81386;SDS011;70842;50.744;7.114;2023-07-02T08:25:59;22.38;;;10.63;;
81386;SDS011;70842;50.744;7.114;2023-07-02T08:28:25;20.17;;;11.15;;
81386;SDS011;70842;50.744;7.114;2023-07-02T08:30:52;23.13;;;13.02;;
81386;SDS011;70842;50.744;7.114;2023-07-02T08:33:18;22.15;;;11.32;;
81386;SDS011;70842;50.744;7.114;2023-07-02T08:35:44;21.80;;;10.50;;
81386;SDS011;70842;50.744;7.114;2023-07-02T08:38:11;21.55;;;12.38;;
81386;SDS011;70842;50.744;7.114;2023-07-02T08:40:37;23.70;;;13.35;;
81386;SDS011;70842;50.744;7.114;2023-07-02T08:43:04;18.77;;;11.43;;
81386;SDS011;70842;50.744;7.114;2023-07-02T08:45:30;21.80;;;11.90;;
81386;SDS011;70842;50.744;7.114;2023-07-02T08:47:57;21.35;;;12.50;;
81386;SDS011;70842;50.744;7.114;2023-07-02T08:50:24;21.80;;;12.75;;
81386;SDS011;70842;50.744;7.114;2023-07-02T08:52:52;19.45;;;11.77;;
81386;SDS011;70842;50.744;7.114;2023-07-02T08:55:20;21.75;;;12.60;;
81386;SDS011;70842;50.744;7.114;2023-07-02T08:57:52;21.35;;;11.02;;
81386;SDS011;70842;50.744;7.114;2023-07-02T09:00:20;17.88;;;10.30;;
81386;SDS011;70842;50.744;7.114;2023-07-02T09:02:47;18.80;;;10.85;;
81386;SDS011;70842;50.744;7.114;2023-07-02T09:05:14;20.75;;;10.65;;
81386;SDS011;70842;50.744;7.114;2023-07-02T09:07:46;18.88;;;10.95;;
81386;SDS011;70842;50.744;7.114;2023-07-02T09:10:26;21.55;;;13.15;;
81386;SDS011;70842;50.744;7.114;2023-07-02T09:13:27;18.60;;;11.50;;
81386;SDS011;70842;50.744;7.114;2023-07-02T09:15:46;18.70;;;10.98;;
81386;SDS011;70842;50.744;7.114;2023-07-02T09:18:19;21.45;;;13.13;;
81386;SDS011;70842;50.744;7.114;2023-07-02T09:20:51;21.75;;;10.55;;
81386;SDS011;70842;50.744;7.114;2023-07-02T09:23:20;20.27;;;12.70;;
81386;SDS011;70842;50.744;7.114;2023-07-02T09:25:47;18.42;;;11.85;;
81386;SDS011;70842;50.744;7.114;2023-07-02T09:28:21;21.25;;;11.82;;
81386;SDS011;70842;50.744;7.114;2023-07-02T09:30:53;16.90;;;10.48;;
81386;SDS011;70842;50.744;7.114;2023-07-02T09:33:24;17.88;;;12.48;;
81386;SDS011;70842;50.744;7.114;2023-07-02T09:35:52;17.13;;;10.60;;
81386;SDS011;70842;50.744;7.114;2023-07-02T09:38:21;19.77;;;12.05;;
81386;SDS011;70842;50.744;7.114;2023-07-02T09:40:51;21.67;;;10.73;;
81386;SDS011;70842;50.744;7.114;2023-07-02T09:43:19;19.58;;;11.57;;
81386;SDS011;70842;50.744;7.114;2023-07-02T09:45:47;20.15;;;10.93;;
81386;SDS011;70842;50.744;7.114;2023-07-02T09:48:17;20.88;;;11.27;;
81386;SDS011;70842;50.744;7.114;2023-07-02T09:50:44;18.52;;;10.48;;
81386;SDS011;70842;50.744;7.114;2023-07-02T09:53:11;18.40;;;11.30;;
81386;SDS011;70842;50.744;7.114;2023-07-02T09:55:38;18.48;;;11.43;;
81386;SDS011;70842;50.744;7.114;2023-07-02T09:58:05;21.30;;;11.32;;
81386;SDS011;70842;50.744;7.114;2023-07-02T10:00:32;19.23;;;10.80;;
81386;SDS011;70842;50.744;7.114;2023-07-02T10:02:59;25.55;;;13.20;;
81386;SDS011;70842;50.744;7.114;2023-07-02T10:05:29;24.98;;;13.13;;
81386;SDS011;70842;50.744;7.114;2023-07-02T10:07:58;18.10;;;10.25;;
81386;SDS011;70842;50.744;7.114;2023-07-02T10:10:37;20.27;;;11.38;;
81386;SDS011;70842;50.744;7.114;2023-07-02T10:13:03;16.77;;;9.98;;
81386;SDS011;70842;50.744;7.114;2023-07-02T10:15:30;16.63;;;10.73;;
81386;SDS011;70842;50.744;7.114;2023-07-02T10:18:01;18.75;;;10.45;;
81386;SDS011;70842;50.744;7.114;2023-07-02T10:23:05;15.15;;;10.00;;
81386;SDS011;70842;50.744;7.114;2023-07-02T10:25:34;17.65;;;9.98;;
81386;SDS011;70842;50.744;7.114;2023-07-02T10:28:19;21.15;;;12.35;;
81386;SDS011;70842;50.744;7.114;2023-07-02T10:30:52;17.63;;;11.00;;
81386;SDS011;70842;50.744;7.114;2023-07-02T10:33:19;17.73;;;9.70;;
81386;SDS011;70842;50.744;7.114;2023-07-02T10:35:47;16.13;;;9.85;;
81386;SDS011;70842;50.744;7.114;2023-07-02T10:38:20;18.70;;;13.20;;
81386;SDS011;70842;50.744;7.114;2023-07-02T10:40:53;17.98;;;9.00;;
81386;SDS011;70842;50.744;7.114;2023-07-02T10:43:24;18.45;;;10.57;;
81386;SDS011;70842;50.744;7.114;2023-07-02T10:45:55;15.75;;;9.85;;
81386;SDS011;70842;50.744;7.114;2023-07-02T10:48:22;18.60;;;10.77;;
81386;SDS011;70842;50.744;7.114;2023-07-02T10:50:49;17.77;;;9.93;;
81386;SDS011;70842;50.744;7.114;2023-07-02T10:53:16;17.48;;;9.98;;
81386;SDS011;70842;50.744;7.114;2023-07-02T10:55:44;17.73;;;10.63;;
81386;SDS011;70842;50.744;7.114;2023-07-02T10:58:11;19.25;;;12.80;;
81386;SDS011;70842;50.744;7.114;2023-07-02T11:00:45;16.65;;;10.43;;
81386;SDS011;70842;50.744;7.114;2023-07-02T11:03:22;18.30;;;10.68;;
81386;SDS011;70842;50.744;7.114;2023-07-02T11:05:51;19.25;;;10.70;;
81386;SDS011;70842;50.744;7.114;2023-07-02T11:08:19;18.27;;;9.77;;
81386;SDS011;70842;50.744;7.114;2023-07-02T11:10:50;19.15;;;9.65;;
81386;SDS011;70842;50.744;7.114;2023-07-02T11:13:18;15.65;;;10.50;;
81386;SDS011;70842;50.744;7.114;2023-07-02T11:15:46;18.15;;;10.50;;
81386;SDS011;70842;50.744;7.114;2023-07-02T11:18:14;17.40;;;10.30;;
81386;SDS011;70842;50.744;7.114;2023-07-02T11:20:42;18.73;;;13.13;;
81386;SDS011;70842;50.744;7.114;2023-07-02T11:23:17;20.02;;;10.18;;
81386;SDS011;70842;50.744;7.114;2023-07-02T11:25:54;19.17;;;9.63;;
81386;SDS011;70842;50.744;7.114;2023-07-02T11:28:23;15.63;;;8.70;;
81386;SDS011;70842;50.744;7.114;2023-07-02T11:30:50;16.13;;;8.52;;
81386;SDS011;70842;50.744;7.114;2023-07-02T11:33:17;17.13;;;9.40;;
81386;SDS011;70842;50.744;7.114;2023-07-02T11:35:44;16.35;;;12.20;;
81386;SDS011;70842;50.744;7.114;2023-07-02T11:38:10;14.52;;;9.48;;
81386;SDS011;70842;50.744;7.114;2023-07-02T11:40:37;13.35;;;8.63;;
81386;SDS011;70842;50.744;7.114;2023-07-02T11:43:03;16.20;;;9.45;;
81386;SDS011;70842;50.744;7.114;2023-07-02T11:45:31;16.52;;;9.15;;
81386;SDS011;70842;50.744;7.114;2023-07-02T11:47:58;17.67;;;9.63;;
81386;SDS011;70842;50.744;7.114;2023-07-02T11:50:24;16.98;;;9.82;;
81386;SDS011;70842;50.744;7.114;2023-07-02T11:52:52;17.90;;;11.00;;
81386;SDS011;70842;50.744;7.114;2023-07-02T11:55:19;16.88;;;9.52;;
81386;SDS011;70842;50.744;7.114;2023-07-02T11:57:45;14.95;;;9.80;;
81386;SDS011;70842;50.744;7.114;2023-07-02T12:00:13;16.92;;;9.60;;
81386;SDS011;70842;50.744;7.114;2023-07-02T12:02:40;14.52;;;10.05;;
81386;SDS011;70842;50.744;7.114;2023-07-02T12:05:06;14.57;;;10.25;;
81386;SDS011;70842;50.744;7.114;2023-07-02T12:07:37;16.77;;;9.93;;
81386;SDS011;70842;50.744;7.114;2023-07-02T12:10:04;16.77;;;10.02;;
81386;SDS011;70842;50.744;7.114;2023-07-02T12:12:31;20.98;;;11.27;;
81386;SDS011;70842;50.744;7.114;2023-07-02T12:14:58;16.95;;;10.98;;
81386;SDS011;70842;50.744;7.114;2023-07-02T12:17:24;16.80;;;11.07;;
81386;SDS011;70842;50.744;7.114;2023-07-02T12:19:50;16.98;;;9.20;;
81386;SDS011;70842;50.744;7.114;2023-07-02T12:22:17;17.05;;;11.40;;
81386;SDS011;70842;50.744;7.114;2023-07-02T12:24:44;21.00;;;11.60;;
81386;SDS011;70842;50.744;7.114;2023-07-02T12:27:10;19.42;;;9.40;;
81386;SDS011;70842;50.744;7.114;2023-07-02T12:29:37;20.33;;;13.77;;
81386;SDS011;70842;50.744;7.114;2023-07-02T12:32:04;18.13;;;10.50;;
81386;SDS011;70842;50.744;7.114;2023-07-02T12:34:31;17.55;;;9.95;;
81386;SDS011;70842;50.744;7.114;2023-07-02T12:36:58;16.95;;;9.95;;
81386;SDS011;70842;50.744;7.114;2023-07-02T12:39:24;20.75;;;9.57;;
81386;SDS011;70842;50.744;7.114;2023-07-02T12:41:50;22.38;;;9.60;;
81386;SDS011;70842;50.744;7.114;2023-07-02T12:44:17;18.23;;;10.32;;
81386;SDS011;70842;50.744;7.114;2023-07-02T12:46:43;17.50;;;9.00;;
81386;SDS011;70842;50.744;7.114;2023-07-02T12:49:10;15.80;;;11.10;;
81386;SDS011;70842;50.744;7.114;2023-07-02T12:51:36;18.25;;;10.00;;
81386;SDS011;70842;50.744;7.114;2023-07-02T12:54:03;21.23;;;10.07;;
81386;SDS011;70842;50.744;7.114;2023-07-02T12:56:29;18.75;;;10.85;;
81386;SDS011;70842;50.744;7.114;2023-07-02T12:58:55;15.25;;;9.07;;
81386;SDS011;70842;50.744;7.114;2023-07-02T13:01:22;22.08;;;10.60;;
81386;SDS011;70842;50.744;7.114;2023-07-02T13:03:50;19.13;;;11.13;;
81386;SDS011;70842;50.744;7.114;2023-07-02T13:06:16;19.20;;;9.68;;
81386;SDS011;70842;50.744;7.114;2023-07-02T13:08:43;17.38;;;9.70;;
81386;SDS011;70842;50.744;7.114;2023-07-02T13:11:09;16.45;;;9.38;;
81386;SDS011;70842;50.744;7.114;2023-07-02T13:13:36;19.20;;;10.43;;
81386;SDS011;70842;50.744;7.114;2023-07-02T13:16:02;16.98;;;11.35;;
81386;SDS011;70842;50.744;7.114;2023-07-02T13:18:29;17.25;;;9.68;;
81386;SDS011;70842;50.744;7.114;2023-07-02T13:20:55;16.70;;;9.80;;
81386;SDS011;70842;50.744;7.114;2023-07-02T13:23:24;16.67;;;9.77;;
81386;SDS011;70842;50.744;7.114;2023-07-02T13:25:51;18.42;;;9.82;;
81386;SDS011;70842;50.744;7.114;2023-07-02T13:28:18;16.35;;;8.52;;
81386;SDS011;70842;50.744;7.114;2023-07-02T13:30:47;17.08;;;9.60;;
81386;SDS011;70842;50.744;7.114;2023-07-02T13:33:13;17.20;;;9.70;;
81386;SDS011;70842;50.744;7.114;2023-07-02T13:35:40;18.83;;;10.20;;
81386;SDS011;70842;50.744;7.114;2023-07-02T13:38:07;17.50;;;8.95;;
81386;SDS011;70842;50.744;7.114;2023-07-02T13:40:33;18.67;;;10.48;;
81386;SDS011;70842;50.744;7.114;2023-07-02T13:43:00;14.32;;;8.77;;
81386;SDS011;70842;50.744;7.114;2023-07-02T13:45:26;16.30;;;8.80;;
81386;SDS011;70842;50.744;7.114;2023-07-02T13:47:52;17.73;;;8.70;;
81386;SDS011;70842;50.744;7.114;2023-07-02T13:50:19;14.55;;;8.52;;
81386;SDS011;70842;50.744;7.114;2023-07-02T13:52:46;19.70;;;9.55;;
81386;SDS011;70842;50.744;7.114;2023-07-02T13:55:12;15.60;;;8.85;;
81386;SDS011;70842;50.744;7.114;2023-07-02T13:57:39;17.85;;;10.68;;
81386;SDS011;70842;50.744;7.114;2023-07-02T14:00:05;13.73;;;9.20;;
81386;SDS011;70842;50.744;7.114;2023-07-02T14:02:32;14.73;;;8.32;;
81386;SDS011;70842;50.744;7.114;2023-07-02T14:04:59;14.95;;;9.45;;
81386;SDS011;70842;50.744;7.114;2023-07-02T14:07:26;16.95;;;8.80;;
81386;SDS011;70842;50.744;7.114;2023-07-02T14:09:53;16.70;;;8.57;;
81386;SDS011;70842;50.744;7.114;2023-07-02T14:12:21;15.63;;;9.05;;
81386;SDS011;70842;50.744;7.114;2023-07-02T14:14:48;15.52;;;9.00;;
81386;SDS011;70842;50.744;7.114;2023-07-02T14:17:14;16.48;;;8.70;;
81386;SDS011;70842;50.744;7.114;2023-07-02T14:19:41;16.48;;;10.07;;
81386;SDS011;70842;50.744;7.114;2023-07-02T14:22:07;17.35;;;9.48;;
81386;SDS011;70842;50.744;7.114;2023-07-02T14:24:34;17.10;;;9.55;;
81386;SDS011;70842;50.744;7.114;2023-07-02T14:27:00;16.42;;;10.73;;
81386;SDS011;70842;50.744;7.114;2023-07-02T14:29:27;15.00;;;8.95;;
81386;SDS011;70842;50.744;7.114;2023-07-02T14:31:53;15.27;;;8.63;;
81386;SDS011;70842;50.744;7.114;2023-07-02T14:34:20;15.40;;;11.05;;